Time;durP1;ratioP1;P1;durP2;ratioP2;P2;SDS_P1;SDS_P2;PMS_P1;PMS_P2;Temp;Humidity;BMP_temperature;BMP_pressure;BME280_temperature;BME280_humidity;BME280_pressure;Samples;Min_cycle;Max_cycle;Signal;HPM_P1;HPM_P2
2021/11/17 02:25:53;;;;;;;16.88;9.60;;;;;;;6.44;75.77;99302.31;2622274;54;20026;-71
2021/11/17 02:28:45;;;;;;;15.75;10.20;;;;;;;6.43;75.69;99301.50;2622081;54;20538;-71
2021/11/17 02:31:40;;;;;;;17.00;10.52;;;;;;;6.45;76.27;99294.28;2625008;39;20422;-72
2021/11/17 02:34:44;;;;;;;18.13;9.75;;;;;;;6.49;75.67;99289.56;2623279;47;20035;-71
2021/11/17 02:37:38;;;;;;;18.05;10.13;;;;;;;6.54;75.55;99294.34;2622923;54;20034;-72
2021/11/17 02:40:24;;;;;;;16.83;9.75;;;;;;;6.51;75.83;99289.41;2623293;54;20034;-72
2021/11/17 02:43:08;;;;;;;16.73;9.85;;;;;;;6.53;75.72;99290.06;2621133;54;20098;-72
2021/11/17 02:45:50;;;;;;;20.17;9.90;;;;;;;6.55;75.43;99288.09;2621145;54;20037;-71
2021/11/17 02:48:33;;;;;;;18.45;10.35;;;;;;;6.56;75.41;99287.94;2620867;54;20036;-72
2021/11/17 02:51:38;;;;;;;15.70;9.48;;;;;;;6.60;76.05;99291.91;2620780;47;20030;-72
2021/11/17 02:54:31;;;;;;;19.63;10.23;;;;;;;6.66;75.74;99287.84;2618737;47;20037;-71
2021/11/17 02:57:14;;;;;;;15.88;9.93;;;;;;;6.63;75.46;99290.78;2618462;54;20069;-72
2021/11/17 02:59:54;;;;;;;18.50;10.52;;;;;;;6.64;75.27;99292.41;2619029;54;20034;-71
2021/11/17 03:02:38;;;;;;;15.88;9.18;;;;;;;6.69;75.58;99290.16;2618485;54;20121;-71
2021/11/17 03:05:32;;;;;;;18.38;9.25;;;;;;;6.65;75.23;99287.03;2618399;54;20030;-71
2021/11/17 03:08:18;;;;;;;14.93;9.60;;;;;;;6.64;74.91;99295.88;2618421;54;20034;-71
2021/11/17 03:11:05;;;;;;;14.98;9.20;;;;;;;6.67;75.07;99298.19;2618915;54;20030;-71
2021/11/17 03:13:49;;;;;;;18.58;10.25;;;;;;;6.63;74.33;99294.22;2619173;54;20061;-73
2021/11/17 03:16:50;;;;;;;16.95;9.13;;;;;;;6.56;74.94;99305.50;2619462;54;20035;-73
2021/11/17 03:19:33;;;;;;;18.55;9.48;;;;;;;6.57;74.92;99296.63;2618283;54;20034;-72
2021/11/17 03:22:33;;;;;;;15.73;9.40;;;;;;;6.58;75.43;99295.69;2619007;54;20094;-73
2021/11/17 03:25:20;;;;;;;15.27;8.85;;;;;;;6.57;75.12;99286.13;2618605;54;20027;-71
2021/11/17 03:28:02;;;;;;;14.65;9.30;;;;;;;6.59;74.92;99292.91;2618856;54;20033;-71
2021/11/17 03:30:51;;;;;;;16.90;9.57;;;;;;;6.56;74.73;99292.38;2619600;39;20450;-70
2021/11/17 03:33:54;;;;;;;13.30;8.35;;;;;;;6.57;75.11;99292.25;2619166;54;20030;-70
2021/11/17 03:36:53;;;;;;;17.02;8.65;;;;;;;6.59;75.00;99292.06;2618069;47;20022;-70
2021/11/17 03:39:48;;;;;;;13.40;7.85;;;;;;;6.56;74.71;99301.06;2623351;54;20033;-72
2021/11/17 03:42:35;;;;;;;15.07;8.70;;;;;;;6.51;75.15;99290.22;2623197;54;20566;-70
2021/11/17 03:45:24;;;;;;;13.60;8.13;;;;;;;6.49;74.88;99296.59;2619360;54;20045;-71
2021/11/17 03:48:15;;;;;;;13.35;7.65;;;;;;;6.50;74.80;99301.72;2618394;54;20026;-69
2021/11/17 03:51:04;;;;;;;12.27;6.93;;;;;;;6.50;74.57;99293.81;2619012;54;20038;-70
2021/11/17 03:53:51;;;;;;;13.23;7.15;;;;;;;6.54;74.72;99294.34;2617738;54;20049;-72
2021/11/17 03:56:36;;;;;;;11.02;7.18;;;;;;;6.45;74.00;99304.81;2617900;54;20049;-71
2021/11/17 03:59:33;;;;;;;11.23;6.57;;;;;;;6.37;74.15;99294.25;2619070;54;20034;-71
2021/11/17 04:02:27;;;;;;;12.20;6.90;;;;;;;6.42;74.37;99297.22;2618170;47;20031;-70
2021/11/17 04:05:13;;;;;;;10.82;6.47;;;;;;;6.40;73.74;99306.22;2619365;39;20453;-68
2021/11/17 04:07:56;;;;;;;8.90;5.78;;;;;;;6.43;74.09;99306.75;2618538;47;20046;-69
2021/11/17 04:10:42;;;;;;;9.90;5.72;;;;;;;6.48;73.77;99303.66;2619075;54;20038;-69
2021/11/17 04:13:23;;;;;;;10.68;6.05;;;;;;;6.41;73.54;99307.91;2619259;54;20522;-68
2021/11/17 04:16:17;;;;;;;9.05;5.65;;;;;;;6.36;72.96;99302.25;2619558;39;20550;-69
2021/11/17 04:18:58;;;;;;;6.22;4.45;;;;;;;6.24;73.03;99304.28;2618447;47;20033;-68
2021/11/17 04:21:43;;;;;;;7.75;4.72;;;;;;;6.09;72.82;99308.47;2618978;54;20038;-69
2021/11/17 04:24:26;;;;;;;5.78;4.07;;;;;;;6.11;73.11;99311.75;2618911;54;20057;-69
2021/11/17 04:27:12;;;;;;;6.57;4.32;;;;;;;6.04;71.95;99313.31;2618971;54;20053;-70
2021/11/17 04:30:07;;;;;;;4.97;4.40;;;;;;;6.01;71.71;99311.84;2619123;54;20038;-69
2021/11/17 04:32:54;;;;;;;5.10;3.70;;;;;;;5.96;71.22;99311.47;2618370;54;20065;-70
2021/11/17 04:35:51;;;;;;;5.95;4.13;;;;;;;5.95;71.32;99309.81;2619216;54;20035;-70
2021/11/17 04:38:49;;;;;;;6.00;4.38;;;;;;;5.93;71.10;99315.22;2620659;54;20034;-70
2021/11/17 04:41:41;;;;;;;5.10;4.45;;;;;;;5.95;70.70;99310.63;2619985;54;20121;-69
2021/11/17 04:44:37;;;;;;;6.50;4.55;;;;;;;6.03;70.98;99316.91;2622045;54;20035;-70
2021/11/17 04:47:33;;;;;;;5.95;4.55;;;;;;;6.05;70.65;99315.00;2623489;54;20035;-71
2021/11/17 04:50:25;;;;;;;6.57;4.70;;;;;;;6.09;70.53;99313.72;2624816;54;20039;-71
2021/11/17 04:53:13;;;;;;;4.97;4.47;;;;;;;6.18;70.53;99318.03;2622071;47;20039;-70
2021/11/17 04:56:05;;;;;;;6.82;4.32;;;;;;;6.15;70.45;99311.28;2621897;54;20041;-70
2021/11/17 04:58:55;;;;;;;5.40;4.70;;;;;;;6.07;70.12;99315.66;2622155;54;20038;-71
2021/11/17 05:02:01;;;;;;;4.85;4.35;;;;;;;6.10;70.41;99326.66;2622413;54;20038;-69
2021/11/17 05:04:41;;;;;;;6.15;5.30;;;;;;;6.12;70.46;99329.97;2622550;54;20031;-69
2021/11/17 05:07:25;;;;;;;5.43;4.80;;;;;;;6.19;70.55;99335.44;2620271;54;20103;-70
2021/11/17 05:10:07;;;;;;;5.33;4.77;;;;;;;6.20;70.63;99329.19;2618755;47;20030;-70
2021/11/17 05:12:49;;;;;;;5.78;5.22;;;;;;;6.21;70.35;99328.25;2624432;54;20050;-70
2021/11/17 05:15:29;;;;;;;7.55;5.45;;;;;;;6.18;70.38;99326.75;2623825;54;20038;-70
2021/11/17 05:18:07;;;;;;;5.68;5.07;;;;;;;6.12;70.15;99326.50;2623707;54;20041;-69
2021/11/17 05:20:51;;;;;;;5.70;5.07;;;;;;;6.03;70.64;99325.63;2622099;54;20030;-73
2021/11/17 05:23:38;;;;;;;5.43;4.72;;;;;;;5.99;70.55;99334.75;2622101;54;20026;-70
2021/11/17 05:26:21;;;;;;;6.10;5.38;;;;;;;6.00;70.78;99335.59;2621703;39;20446;-70
2021/11/17 05:29:12;;;;;;;7.15;5.15;;;;;;;5.97;70.98;99346.41;2623857;39;20082;-71
2021/11/17 05:31:53;;;;;;;5.70;5.07;;;;;;;6.03;71.27;99344.00;2624100;39;20418;-69
2021/11/17 05:34:35;;;;;;;6.53;5.50;;;;;;;5.98;71.27;99346.25;2621909;54;20031;-70
2021/11/17 05:37:17;;;;;;;7.35;5.15;;;;;;;5.93;71.52;99346.69;2621678;54;20038;-71
2021/11/17 05:40:12;;;;;;;7.32;5.20;;;;;;;5.94;71.73;99353.59;2619545;54;20049;-71
2021/11/17 05:42:53;;;;;;;7.05;5.57;;;;;;;5.93;72.35;99359.00;2618170;47;20058;-71
2021/11/17 05:45:33;;;;;;;8.23;6.05;;;;;;;5.91;72.56;99366.97;2618773;54;20034;-71
2021/11/17 05:48:13;;;;;;;7.63;6.38;;;;;;;5.93;72.57;99366.88;2618848;54;20082;-71
2021/11/17 05:50:55;;;;;;;6.13;4.97;;;;;;;5.94;73.04;99371.13;2619343;54;20038;-71
2021/11/17 05:53:38;;;;;;;10.18;5.47;;;;;;;5.94;72.65;99369.34;2625910;54;20042;-71
2021/11/17 05:56:25;;;;;;;7.90;5.90;;;;;;;5.92;72.96;99376.53;2625181;48;20038;-71
2021/11/17 05:59:16;;;;;;;7.18;5.70;;;;;;;5.87;73.67;99381.34;2625568;54;20039;-73
2021/11/17 06:02:03;;;;;;;9.25;6.07;;;;;;;5.89;73.77;99383.84;2624610;54;20041;-69
2021/11/17 06:04:33;;;;;;;9.90;6.38;;;;;;;5.83;74.29;99381.81;2625461;54;20042;-68
2021/11/17 06:07:02;;;;;;;9.00;6.53;;;;;;;5.80;74.10;99384.75;2621479;47;20557;-69
2021/11/17 06:09:31;;;;;;;7.32;6.30;;;;;;;5.76;74.65;99384.22;2619840;39;20446;-69
2021/11/17 06:12:05;;;;;;;8.60;6.50;;;;;;;5.76;74.98;99396.50;2619662;47;20023;-70
2021/11/17 06:14:37;;;;;;;9.18;6.75;;;;;;;5.68;74.89;99395.44;2619419;54;20034;-70
2021/11/17 06:17:13;;;;;;;9.98;6.80;;;;;;;5.72;75.38;99398.59;2618878;47;20044;-69
2021/11/17 06:19:46;;;;;;;9.80;7.13;;;;;;;5.76;75.15;99397.34;2619889;54;20027;-70
2021/11/17 06:22:18;;;;;;;9.00;6.60;;;;;;;5.73;75.31;99397.63;2619518;54;20058;-69
2021/11/17 06:24:50;;;;;;;9.73;6.63;;;;;;;5.74;75.13;99395.81;2619276;54;20045;-70
2021/11/17 06:27:27;;;;;;;8.32;6.60;;;;;;;5.77;75.45;99396.34;2619424;54;20038;-70
2021/11/17 06:29:59;;;;;;;7.60;6.05;;;;;;;5.67;75.31;99388.56;2619398;46;20057;-70
2021/11/17 06:32:30;;;;;;;7.90;6.30;;;;;;;5.69;75.38;99391.00;2619393;54;20034;-69
2021/11/17 06:35:01;;;;;;;7.05;6.13;;;;;;;5.69;75.50;99385.78;2619082;54;20082;-70
2021/11/17 06:37:32;;;;;;;6.97;5.32;;;;;;;5.72;75.38;99395.97;2619143;54;20027;-68
2021/11/17 06:40:04;;;;;;;8.50;6.13;;;;;;;5.65;75.00;99408.84;2619933;54;20036;-69
2021/11/17 06:42:40;;;;;;;9.00;6.50;;;;;;;5.65;75.25;99413.25;2620178;54;20033;-69
2021/11/17 06:45:12;;;;;;;7.07;5.55;;;;;;;5.71;75.58;99417.91;2618586;47;20545;-69
2021/11/17 06:47:42;;;;;;;7.47;5.72;;;;;;;5.65;75.44;99413.25;2619725;54;20031;-69
2021/11/17 06:50:13;;;;;;;7.13;5.35;;;;;;;5.63;75.20;99418.66;2620085;39;20423;-69
2021/11/17 06:52:42;;;;;;;6.95;5.80;;;;;;;5.64;75.39;99422.94;2618936;39;20701;-70
2021/11/17 06:55:13;;;;;;;8.07;5.60;;;;;;;5.67;75.46;99424.44;2618825;54;20130;-69
2021/11/17 06:57:45;;;;;;;6.57;4.82;;;;;;;5.72;75.24;99432.72;2618260;54;20037;-69
2021/11/17 07:00:17;;;;;;;6.13;4.45;;;;;;;5.72;74.58;99435.31;2618811;54;20137;-69
2021/11/17 07:02:47;;;;;;;7.35;4.97;;;;;;;5.71;74.55;99441.53;2618363;54;20039;-70
2021/11/17 07:05:18;;;;;;;6.57;4.32;;;;;;;5.71;74.40;99444.16;2618402;54;20026;-69
2021/11/17 07:40:36;;;;;;;4.18;3.08;;;;;;;5.64;73.62;99472.78;2622891;39;20466;-67
2021/11/17 07:43:07;;;;;;;4.53;3.67;;;;;;;5.66;73.84;99478.69;2624519;54;20038;-67
2021/11/17 07:45:37;;;;;;;3.60;3.20;;;;;;;5.68;73.94;99486.44;2625195;54;20038;-68
2021/11/17 07:48:13;;;;;;;4.27;3.40;;;;;;;5.70;73.62;99490.53;2625262;54;20027;-68
2021/11/17 07:50:42;;;;;;;6.15;3.70;;;;;;;5.75;74.09;99497.97;2626143;54;21021;-66
2021/11/17 07:53:19;;;;;;;4.95;3.60;;;;;;;5.75;73.68;99494.53;2624439;54;20031;-66
2021/11/17 07:55:53;;;;;;;5.75;3.90;;;;;;;5.81;73.55;99489.53;2624299;39;20450;-65
2021/11/17 07:58:25;;;;;;;4.00;3.22;;;;;;;5.76;73.92;99497.03;2623727;54;20030;-66
2021/11/17 08:00:58;;;;;;;5.30;3.72;;;;;;;5.77;73.79;99490.81;2624644;54;20034;-66
2021/11/17 08:03:32;;;;;;;5.82;4.13;;;;;;;5.78;73.82;99496.88;2624442;54;20041;-66
2021/11/17 08:06:02;;;;;;;6.85;3.72;;;;;;;5.81;74.08;99505.28;2624264;54;20542;-68
2021/11/17 08:08:34;;;;;;;8.95;3.70;;;;;;;5.86;73.74;99495.16;2624980;47;20026;-67
2021/11/17 08:11:07;;;;;;;5.38;3.90;;;;;;;5.91;74.14;99502.59;2625716;39;20477;-67
2021/11/17 08:13:37;;;;;;;4.47;3.33;;;;;;;5.93;73.96;99506.78;2625530;54;20050;-67
2021/11/17 08:16:08;;;;;;;6.90;3.80;;;;;;;5.91;73.91;99500.81;2625900;54;20022;-67
2021/11/17 08:18:38;;;;;;;5.72;3.55;;;;;;;5.86;74.05;99502.22;2624904;47;20038;-67
2021/11/17 08:21:11;;;;;;;4.03;3.22;;;;;;;5.84;73.90;99506.81;2625477;39;20469;-68
2021/11/17 08:23:41;;;;;;;7.40;3.40;;;;;;;5.83;74.17;99508.56;2625771;52;20034;-67
2021/11/17 08:26:14;;;;;;;3.47;3.15;;;;;;;5.91;74.00;99495.56;2625572;54;20038;-67
2021/11/17 08:28:44;;;;;;;5.43;3.35;;;;;;;5.92;74.06;99499.06;2624783;54;20035;-67
2021/11/17 08:31:15;;;;;;;3.67;3.10;;;;;;;5.94;73.71;99499.72;2625019;51;20059;-67
2021/11/17 08:33:47;;;;;;;4.80;3.78;;;;;;;6.02;73.55;99499.00;2625686;54;20030;-67
2021/11/17 08:36:16;;;;;;;7.57;3.83;;;;;;;6.21;73.49;99498.91;2625709;54;20037;-67
2021/11/17 08:38:46;;;;;;;6.07;3.70;;;;;;;6.33;73.42;99502.16;2625053;53;20604;-68
2021/11/17 08:41:20;;;;;;;4.32;3.70;;;;;;;6.33;72.96;99502.97;2624516;51;20030;-67
2021/11/17 08:43:50;;;;;;;4.30;3.63;;;;;;;6.44;73.26;99499.28;2624885;54;20027;-67
2021/11/17 08:46:20;;;;;;;5.53;3.75;;;;;;;6.56;72.97;99499.91;2625056;54;20031;-67
2021/11/17 08:48:50;;;;;;;5.90;3.78;;;;;;;6.61;72.85;99498.50;2625657;54;20023;-67
2021/11/17 08:51:22;;;;;;;9.15;3.90;;;;;;;6.63;72.89;99496.53;2623912;47;20026;-67
2021/11/17 08:53:52;;;;;;;5.22;4.22;;;;;;;6.75;72.50;99496.31;2624844;54;20035;-68
2021/11/17 08:56:25;;;;;;;6.22;4.10;;;;;;;6.89;72.35;99506.25;2624584;54;20582;-66
2021/11/17 08:58:54;;;;;;;7.10;4.10;;;;;;;6.88;71.88;99502.81;2623738;54;20034;-66
2021/11/17 09:01:24;;;;;;;3.95;3.53;;;;;;;6.91;71.69;99510.41;2623754;54;20030;-69
2021/11/17 09:03:54;;;;;;;5.85;3.65;;;;;;;6.96;71.77;99507.31;2623185;47;20027;-67
2021/11/17 09:06:23;;;;;;;3.88;3.30;;;;;;;7.07;71.39;99501.00;2623573;54;20055;-66
2021/11/17 09:08:53;;;;;;;3.83;3.25;;;;;;;7.13;71.46;99511.72;2623838;54;20041;-69
2021/11/17 09:11:25;;;;;;;3.38;2.30;;;;;;;7.16;70.44;99511.41;2623274;54;20030;-65
2021/11/17 09:13:55;;;;;;;3.00;2.67;;;;;;;7.15;69.80;99508.94;2623355;39;20387;-65
2021/11/17 09:16:29;;;;;;;4.75;3.78;;;;;;;7.17;70.42;99506.97;2623426;54;20026;-67
2021/11/17 09:19:00;;;;;;;4.55;3.17;;;;;;;7.29;70.08;99515.44;2622880;54;20071;-66
2021/11/17 09:21:31;;;;;;;7.75;4.53;;;;;;;7.40;69.70;99518.66;2622245;54;20034;-66
2021/11/17 09:24:00;;;;;;;3.78;2.65;;;;;;;7.44;69.09;99501.56;2622632;54;20107;-66
2021/11/17 09:26:33;;;;;;;4.63;2.58;;;;;;;7.45;69.13;99516.38;2621987;50;20030;-68
2021/11/17 09:29:03;;;;;;;3.35;2.75;;;;;;;7.45;68.93;99518.19;2622322;54;20035;-67
2021/11/17 09:31:35;;;;;;;2.60;2.25;;;;;;;7.54;68.65;99525.13;2621585;54;20038;-65
2021/11/17 09:34:06;;;;;;;2.22;2.03;;;;;;;7.44;68.01;99525.25;2622257;54;20564;-66
2021/11/17 09:36:37;;;;;;;2.92;2.45;;;;;;;7.40;67.93;99529.16;2622901;54;20037;-66
2021/11/17 09:39:08;;;;;;;2.53;1.88;;;;;;;7.47;67.89;99541.69;2623629;54;20034;-66
2021/11/17 09:41:44;;;;;;;2.60;2.20;;;;;;;7.58;68.10;99539.63;2623553;47;20038;-69
2021/11/17 09:44:18;;;;;;;2.22;1.90;;;;;;;7.67;67.91;99551.88;2622478;51;20565;-66
2021/11/17 09:46:50;;;;;;;3.15;2.47;;;;;;;7.72;67.99;99553.22;2623946;54;20037;-66
2021/11/17 09:49:24;;;;;;;2.63;2.10;;;;;;;7.82;67.71;99560.00;2623991;54;20038;-68
2021/11/17 09:52:02;;;;;;;2.53;1.67;;;;;;;7.93;67.25;99554.47;2624010;54;20051;-66
2021/11/17 09:54:38;;;;;;;3.22;2.08;;;;;;;8.01;67.04;99558.97;2623649;54;20030;-66
2021/11/17 09:57:14;;;;;;;2.42;1.92;;;;;;;7.95;66.48;99556.94;2624223;54;20030;-65
2021/11/17 09:59:49;;;;;;;2.28;1.90;;;;;;;7.98;66.49;99554.00;2623911;54;20038;-65
2021/11/17 10:02:23;;;;;;;2.42;1.92;;;;;;;8.01;66.26;99550.25;2623556;54;20049;-65
2021/11/17 10:04:59;;;;;;;12.48;2.40;;;;;;;8.02;66.68;99543.97;2623865;54;20042;-68
2021/11/17 10:13:19;;;;;;;2.92;1.85;;;;;;;8.21;65.90;99543.75;2622792;54;20070;-66
2021/11/17 10:15:53;;;;;;;2.78;1.77;;;;;;;8.26;66.30;99540.63;2624516;54;20108;-67
2021/11/17 10:18:45;;;;;;;2.35;2.00;;;;;;;8.33;66.05;99545.09;2623828;54;20031;-66
2021/11/17 10:21:18;;;;;;;3.90;2.20;;;;;;;8.37;65.74;99549.09;2623406;47;20030;-66
2021/11/17 10:23:58;;;;;;;3.63;2.78;;;;;;;8.43;65.45;99556.34;2623976;47;20030;-67
2021/11/17 10:26:29;;;;;;;2.78;1.67;;;;;;;8.43;65.16;99553.72;2623612;47;20034;-68
2021/11/17 10:29:05;;;;;;;2.15;1.75;;;;;;;8.36;65.13;99557.94;2623839;47;20027;-66
2021/11/17 10:31:50;;;;;;;2.42;1.80;;;;;;;8.29;65.07;99567.47;2623557;47;20030;-66
2021/11/17 10:34:24;;;;;;;2.95;1.83;;;;;;;8.29;65.07;99556.13;2624108;39;20404;-65
2021/11/17 10:36:59;;;;;;;1.45;1.35;;;;;;;8.18;64.77;99563.31;2620581;54;20038;-68
2021/11/17 10:39:32;;;;;;;1.67;1.48;;;;;;;8.00;64.42;99556.47;2619046;54;20042;-68
2021/11/17 10:42:05;;;;;;;1.73;1.45;;;;;;;7.92;64.82;99566.00;2622396;54;20026;-66
2021/11/17 10:44:46;;;;;;;2.90;1.60;;;;;;;7.89;64.98;99560.22;2624554;54;20030;-66
2021/11/17 10:47:25;;;;;;;1.73;1.33;;;;;;;7.89;64.87;99554.97;2624430;39;20446;-66
2021/11/17 10:49:58;;;;;;;2.10;1.67;;;;;;;7.95;64.61;99547.22;2624357;39;20505;-68
2021/11/17 10:52:32;;;;;;;2.47;1.75;;;;;;;8.03;64.44;99548.25;2624142;54;20038;-65
2021/11/17 10:55:06;;;;;;;5.85;3.28;;;;;;;8.13;64.74;99551.63;2624517;54;20026;-65
2021/11/17 10:57:38;;;;;;;6.50;2.15;;;;;;;8.15;64.61;99552.25;2623642;54;20031;-66
2021/11/17 11:00:14;;;;;;;2.13;1.90;;;;;;;8.14;64.04;99553.25;2623203;54;20028;-66
2021/11/17 11:02:45;;;;;;;3.67;1.88;;;;;;;8.06;64.08;99548.78;2623675;54;20023;-66
2021/11/17 11:05:19;;;;;;;3.03;1.52;;;;;;;8.06;64.29;99555.84;2623829;54;20026;-67
2021/11/17 11:07:54;;;;;;;2.38;1.73;;;;;;;8.08;64.53;99548.59;2623719;54;20042;-68
2021/11/17 11:10:28;;;;;;;2.70;1.70;;;;;;;8.11;64.54;99545.66;2624456;39;20105;-64
2021/11/17 11:12:59;;;;;;;;;;;;;;;8.10;64.26;99547.47;2624359;39;20449;-66
2021/11/17 11:15:34;;;;;;;2.00;1.80;;;;;;;8.20;64.22;99547.34;2623884;54;19938;-67
2021/11/17 11:18:39;;;;;;;3.38;2.38;;;;;;;8.23;64.80;99539.13;2621691;54;20035;-66
2021/11/17 11:21:12;;;;;;;2.13;1.80;;;;;;;8.27;64.61;99529.91;2620226;54;20122;-66
2021/11/17 11:24:13;;;;;;;3.40;3.10;;;;;;;8.46;65.03;99522.78;2623725;54;20046;-70
2021/11/17 11:27:16;;;;;;;3.80;3.50;;;;;;;8.45;64.54;99532.50;2624293;54;20573;-67
2021/11/17 11:29:48;;;;;;;4.13;3.25;;;;;;;8.49;65.16;99528.53;2624166;54;20033;-66
2021/11/17 11:32:49;;;;;;;3.45;3.08;;;;;;;8.37;64.33;99533.28;2623583;47;20026;-67
2021/11/17 11:35:24;;;;;;;3.15;1.77;;;;;;;8.39;64.78;99538.38;2624487;54;20038;-68
2021/11/17 11:38:07;;;;;;;5.25;4.57;;;;;;;8.40;64.18;99545.28;2623903;54;20038;-66
2021/11/17 11:41:04;;;;;;;2.60;2.40;;;;;;;8.26;64.21;99549.34;2623920;54;20038;-67
2021/11/17 11:43:34;;;;;;;4.10;3.70;;;;;;;8.36;64.99;99546.56;2624343;54;20561;-66
2021/11/17 11:46:25;;;;;;;9.50;7.13;;;;;;;8.31;64.55;99554.13;2624278;54;20030;-67
2021/11/17 11:49:01;;;;;;;5.53;4.90;;;;;;;8.26;64.43;99543.25;2624430;54;20573;-67
2021/11/17 11:51:57;;;;;;;16.30;9.73;;;;;;;8.44;64.50;99539.53;2624233;54;20058;-67
2021/11/17 11:54:31;;;;;;;14.60;10.18;;;;;;;8.48;64.39;99542.69;2623997;54;20038;-70
2021/11/17 11:57:30;;;;;;;5.43;4.13;;;;;;;8.40;64.42;99553.19;2624264;54;20038;-66
2021/11/17 12:00:02;;;;;;;5.57;4.53;;;;;;;8.36;64.52;99555.28;2623481;54;20037;-67
2021/11/17 12:02:38;;;;;;;3.22;2.65;;;;;;;8.36;64.82;99552.66;2623614;54;20040;-67
2021/11/17 12:05:41;;;;;;;4.45;2.83;;;;;;;8.33;64.78;99558.28;2623307;54;20033;-67
2021/11/17 12:08:17;;;;;;;3.53;3.00;;;;;;;8.29;64.85;99556.94;2623379;54;20043;-67
2021/11/17 12:10:50;;;;;;;7.40;3.80;;;;;;;8.22;64.55;99558.56;2623665;54;20033;-66
2021/11/17 12:13:22;;;;;;;4.57;4.18;;;;;;;8.25;65.11;99555.59;2623910;39;20438;-68
2021/11/17 12:16:03;;;;;;;4.68;3.10;;;;;;;8.33;65.29;99552.19;2622912;54;20034;-65
2021/11/17 12:18:46;;;;;;;3.88;3.35;;;;;;;8.40;64.94;99553.19;2622677;47;20082;-71
2021/11/17 12:21:21;;;;;;;6.68;3.40;;;;;;;8.37;64.97;99558.81;2623867;39;20471;-66
2021/11/17 12:24:06;;;;;;;4.15;3.05;;;;;;;8.32;65.29;99566.31;2624783;54;20034;-67
2021/11/17 12:26:38;;;;;;;4.75;2.45;;;;;;;8.28;64.92;99568.44;2624854;54;20042;-66
2021/11/17 12:29:13;;;;;;;4.18;3.25;;;;;;;8.30;65.01;99565.66;2624804;54;20038;-66
2021/11/17 12:31:55;;;;;;;5.13;4.13;;;;;;;8.34;65.20;99562.56;2624201;54;20030;-67
2021/11/17 12:34:30;;;;;;;5.88;3.83;;;;;;;8.34;65.00;99567.81;2624142;54;20018;-67
2021/11/17 12:37:05;;;;;;;6.00;4.30;;;;;;;8.29;65.15;99564.84;2624723;54;20054;-69
2021/11/17 12:39:38;;;;;;;3.78;2.85;;;;;;;8.28;65.03;99562.34;2624561;54;20018;-67
2021/11/17 12:42:09;;;;;;;5.07;3.78;;;;;;;8.25;65.06;99555.59;2625039;54;20035;-67
2021/11/17 12:44:44;;;;;;;4.75;3.80;;;;;;;8.25;64.80;99552.16;2625043;54;20058;-67
2021/11/17 12:47:16;;;;;;;13.00;9.65;;;;;;;8.30;65.00;99552.50;2624493;47;20029;-67
2021/11/17 12:49:49;;;;;;;6.90;5.20;;;;;;;8.33;65.14;99566.19;2624650;54;20026;-66
2021/11/17 12:52:26;;;;;;;6.93;3.35;;;;;;;8.28;65.11;99563.16;2624404;54;20034;-66
2021/11/17 12:55:02;;;;;;;5.30;4.28;;;;;;;8.25;65.22;99566.16;2624781;54;20051;-66
2021/11/17 12:57:36;;;;;;;4.63;3.55;;;;;;;8.26;65.43;99575.69;2625081;39;20444;-67
2021/11/17 13:00:41;;;;;;;5.60;3.50;;;;;;;8.15;64.84;99573.34;2624577;54;20030;-66
2021/11/17 13:03:25;;;;;;;5.72;3.67;;;;;;;8.11;65.01;99575.44;2624706;54;20055;-70
2021/11/17 13:06:20;;;;;;;5.88;4.75;;;;;;;8.08;65.62;99580.22;2624267;54;20023;-70
2021/11/17 13:09:10;;;;;;;6.80;4.68;;;;;;;8.02;65.70;99584.31;2622291;54;20058;-65
2021/11/17 13:12:04;;;;;;;6.20;4.55;;;;;;;7.94;65.71;99573.72;2622986;54;20034;-66
2021/11/17 13:14:36;;;;;;;5.60;4.80;;;;;;;7.81;65.85;99574.16;2623558;54;20030;-66
2021/11/17 13:17:10;;;;;;;7.35;5.00;;;;;;;7.89;66.23;99571.56;2623299;54;20065;-65
2021/11/17 13:19:42;;;;;;;10.35;6.80;;;;;;;7.90;66.25;99569.75;2622327;54;20049;-68
2021/11/17 13:22:31;;;;;;;11.00;6.68;;;;;;;7.92;66.50;99567.81;2623367;54;20039;-69
2021/11/17 13:25:23;;;;;;;8.75;5.85;;;;;;;7.99;66.38;99560.09;2623216;54;20023;-66
2021/11/17 13:27:55;;;;;;;7.60;6.03;;;;;;;8.07;66.56;99558.31;2622747;54;20026;-66
2021/11/17 13:30:41;;;;;;;7.00;5.53;;;;;;;8.12;66.51;99568.38;2623228;54;20045;-65
2021/11/17 13:33:30;;;;;;;5.53;4.82;;;;;;;8.12;66.13;99571.00;2622573;54;20033;-66
2021/11/17 13:36:07;;;;;;;8.23;4.93;;;;;;;8.09;66.74;99573.97;2623448;54;20041;-69
2021/11/17 13:38:38;;;;;;;6.72;5.45;;;;;;;8.14;66.19;99563.78;2623961;39;20436;-65
2021/11/17 13:41:12;;;;;;;6.85;5.63;;;;;;;8.10;66.70;99562.44;2623404;54;20030;-66
2021/11/17 13:43:41;;;;;;;9.07;6.43;;;;;;;8.14;66.38;99566.41;2623413;54;20031;-66
2021/11/17 13:46:14;;;;;;;13.77;8.68;;;;;;;8.09;66.91;99564.28;2622892;39;20427;-65
2021/11/17 13:48:47;;;;;;;11.80;9.00;;;;;;;8.12;66.92;99558.69;2622920;54;20071;-69
2021/11/17 13:51:19;;;;;;;15.82;11.00;;;;;;;8.17;66.70;99564.31;2623353;54;20066;-69
2021/11/17 13:53:49;;;;;;;13.75;8.80;;;;;;;8.14;67.09;99561.16;2624055;54;20034;-67
2021/11/17 13:56:25;;;;;;;14.40;10.93;;;;;;;8.16;66.91;99567.94;2623844;47;20038;-67
2021/11/17 13:58:56;;;;;;;10.32;8.02;;;;;;;8.12;66.94;99563.09;2623911;47;20030;-67
2021/11/17 14:01:27;;;;;;;11.88;8.02;;;;;;;7.96;67.03;99566.53;2623887;54;20026;-67
2021/11/17 14:03:56;;;;;;;11.30;7.80;;;;;;;8.03;67.56;99574.59;2623512;47;20034;-67
2021/11/17 14:06:26;;;;;;;11.63;8.20;;;;;;;8.07;67.58;99565.41;2623506;54;20034;-67
2021/11/17 14:08:55;;;;;;;15.57;10.80;;;;;;;8.13;67.71;99565.59;2624178;39;20472;-67
2021/11/17 14:11:31;;;;;;;13.85;9.75;;;;;;;8.04;67.47;99565.69;2624035;54;20108;-67
2021/11/17 14:14:00;;;;;;;15.82;10.23;;;;;;;8.05;67.60;99565.56;2623535;47;20034;-67
2021/11/17 14:16:31;;;;;;;11.43;8.77;;;;;;;8.05;67.30;99562.13;2620863;54;20026;-67
2021/11/17 14:19:00;;;;;;;16.77;10.13;;;;;;;7.95;67.50;99567.47;2618691;54;20034;-66
2021/11/17 14:21:30;;;;;;;15.00;11.15;;;;;;;7.97;67.95;99562.91;2618578;54;20050;-67
2021/11/17 14:23:59;;;;;;;14.30;10.60;;;;;;;7.97;68.06;99572.59;2619145;47;20038;-68
2021/11/17 14:26:32;;;;;;;13.57;9.18;;;;;;;8.00;67.97;99575.75;2622815;54;20030;-68
2021/11/17 14:29:04;;;;;;;14.80;10.20;;;;;;;7.97;68.13;99576.06;2622906;54;20602;-68
2021/11/17 14:31:39;;;;;;;12.30;10.35;;;;;;;7.92;68.40;99576.53;2623218;54;20038;-67
2021/11/17 14:34:09;;;;;;;18.20;13.23;;;;;;;7.91;68.55;99572.22;2622964;54;20050;-67
2021/11/17 14:36:45;;;;;;;14.43;9.98;;;;;;;7.87;68.49;99570.06;2622774;54;20057;-67
2021/11/17 14:39:18;;;;;;;12.98;9.77;;;;;;;7.77;68.62;99577.25;2622142;54;20034;-68
2021/11/17 14:41:51;;;;;;;12.55;9.80;;;;;;;7.75;68.95;99572.13;2623003;54;20034;-67
2021/11/17 14:44:21;;;;;;;13.65;10.50;;;;;;;7.68;68.99;99574.59;2622127;54;20026;-68
2021/11/17 14:46:50;;;;;;;15.30;10.98;;;;;;;7.69;69.42;99580.66;2623331;39;20522;-67
2021/11/17 14:49:21;;;;;;;18.33;11.10;;;;;;;7.73;69.17;99591.72;2623049;47;20630;-66
2021/11/17 14:51:50;;;;;;;18.85;13.23;;;;;;;7.74;69.13;99588.09;2622272;54;20034;-67
2021/11/17 14:54:20;;;;;;;16.95;11.93;;;;;;;7.76;69.54;99601.94;2623674;54;20062;-66
2021/11/17 14:56:52;;;;;;;15.35;11.23;;;;;;;7.73;69.02;99604.88;2623459;54;20035;-66
2021/11/17 14:59:22;;;;;;;15.50;10.77;;;;;;;7.69;69.17;99599.09;2623121;54;20049;-67
2021/11/17 15:01:52;;;;;;;12.85;10.32;;;;;;;7.68;69.68;99600.91;2623086;54;20026;-67
2021/11/17 15:04:22;;;;;;;15.65;10.88;;;;;;;7.71;69.33;99602.38;2623875;54;20036;-66
2021/11/17 15:06:52;;;;;;;14.05;10.90;;;;;;;7.70;69.67;99611.25;2623493;54;20030;-67
2021/11/17 15:09:23;;;;;;;15.82;12.93;;;;;;;7.68;69.63;99607.97;2623938;54;20027;-66
2021/11/17 15:12:00;;;;;;;16.80;10.63;;;;;;;7.65;69.95;99611.72;2621118;54;20075;-67
2021/11/17 15:14:32;;;;;;;13.82;10.48;;;;;;;7.66;69.66;99612.53;2620407;54;20046;-67
2021/11/17 15:17:01;;;;;;;14.20;10.20;;;;;;;7.63;69.66;99603.16;2621735;54;20038;-68
2021/11/17 15:19:31;;;;;;;17.75;13.57;;;;;;;7.68;69.62;99602.72;2624706;54;20034;-67
2021/11/17 15:22:00;;;;;;;16.73;12.85;;;;;;;7.66;70.07;99610.75;2625013;54;20030;-67
2021/11/17 15:24:32;;;;;;;16.23;11.57;;;;;;;7.63;69.72;99604.94;2624512;54;20034;-68
2021/11/17 15:27:08;;;;;;;15.15;10.43;;;;;;;7.63;69.91;99616.34;2624624;54;20732;-67
2021/11/17 15:29:40;;;;;;;13.80;9.32;;;;;;;7.59;70.25;99614.13;2625024;47;20045;-67
2021/11/17 15:32:11;;;;;;;15.02;11.15;;;;;;;7.63;70.08;99615.47;2625541;54;20061;-66
2021/11/17 15:34:41;;;;;;;12.93;10.63;;;;;;;7.61;70.25;99623.53;2625427;54;20030;-66